Terminal Aerodrome Forecast
Issued by NWS Jackson, MS

Home | Current Version | Previous Version | Text Only | Print | Product List | Glossary On
Versions: 1 2 3 4 5 6 7 8 9 10 11 12 13 14 15
000
FTUS44 KJAN 011753
TAFGWO
TAF
KGWO 011753Z 0118/0218 21011KT P6SM OVC016
     FM011900 17010KT P6SM VCSH SCT030 BKN120
     FM020000 16007KT P6SM BKN100
     FM020700 18010KT P6SM OVC015
     FM021700 19017G23KT P6SM BKN035=

USA.gov is the U.S. government's official web portal to all federal, state and local government web resources and services.